createdAt,value
2018-03-27T00:00:37.801Z,44.60
2018-03-27T00:03:06.894Z,44.90
2018-03-27T00:05:35.201Z,45.57
2018-03-27T00:08:03.497Z,45.50
2018-03-27T00:10:32.892Z,43.43
2018-03-27T00:13:01.921Z,46.03
2018-03-27T00:15:30.202Z,46.57
2018-03-27T00:17:58.722Z,45.63
2018-03-27T00:20:27.029Z,51.10
2018-03-27T00:22:55.296Z,46.60
2018-03-27T00:25:23.839Z,49.83
2018-03-27T00:28:04.119Z,50.77
2018-03-27T00:30:51.435Z,48.97
2018-03-27T00:33:38.397Z,53.23
2018-03-27T00:54:14.255Z,54.57
2018-03-27T01:14:45.859Z,61.47
2018-03-27T01:17:14.165Z,52.87
2018-03-27T01:37:46.184Z,55.67
2018-03-27T01:40:14.541Z,56.70
2018-03-27T01:42:42.770Z,42.20
2018-03-27T01:45:11.062Z,61.30
2018-03-27T01:47:39.386Z,59.37
2018-03-27T01:50:07.659Z,59.23
2018-03-27T01:52:35.931Z,55.93
2018-03-27T01:55:04.419Z,57.33
2018-03-27T01:57:32.703Z,57.67
2018-03-27T02:00:00.962Z,59.40
2018-03-27T02:02:29.270Z,60.80
2018-03-27T02:04:57.558Z,60.23
2018-03-27T02:07:31.547Z,53.50
2018-03-27T02:09:59.824Z,54.87
2018-03-27T02:12:33.919Z,41.80
2018-03-27T02:15:07.907Z,44.90
2018-03-27T02:17:41.844Z,40.90
2018-03-27T02:20:15.904Z,41.20
2018-03-27T02:22:56.972Z,37.60
2018-03-27T02:25:25.268Z,43.67
2018-03-27T02:27:53.656Z,43.27
2018-03-27T02:30:22.828Z,42.13
2018-03-27T02:32:51.096Z,40.90
2018-03-27T02:35:19.371Z,42.53
2018-03-27T02:37:47.639Z,39.03
2018-03-27T02:40:15.961Z,36.13
2018-03-27T02:42:44.188Z,42.93
2018-03-27T03:03:14.109Z,44.20
2018-03-27T03:05:42.351Z,41.63
2018-03-27T03:08:10.595Z,40.93
2018-03-27T03:10:39.220Z,43.97
2018-03-27T03:13:07.443Z,43.17
2018-03-27T03:15:35.694Z,39.67
2018-03-27T03:18:04.863Z,42.13
2018-03-27T03:20:33.172Z,45.07
2018-03-27T03:23:01.437Z,43.03
2018-03-27T03:25:29.906Z,44.47
2018-03-27T03:27:58.497Z,42.27
2018-03-27T03:30:26.762Z,43.93
2018-03-27T03:32:55.266Z,44.13
2018-03-27T03:35:23.507Z,44.60
2018-03-27T03:37:51.758Z,44.47
2018-03-27T03:40:20.856Z,40.53
2018-03-27T04:00:50.747Z,49.10
2018-03-27T04:03:19.104Z,44.60
2018-03-27T04:05:47.411Z,47.73
2018-03-27T04:08:15.692Z,48.73
2018-03-27T04:10:45.112Z,43.97
2018-03-27T04:13:13.387Z,43.73
2018-03-27T04:15:41.663Z,42.67
2018-03-27T04:18:09.974Z,44.03
2018-03-27T04:20:38.243Z,43.73
2018-03-27T04:23:06.601Z,42.50
2018-03-27T04:25:35.100Z,49.17
2018-03-27T04:28:04.203Z,43.53
2018-03-27T04:30:32.475Z,42.47
2018-03-27T04:51:02.352Z,45.00
2018-03-27T04:53:31.354Z,45.60
2018-03-27T04:56:00.412Z,45.73
2018-03-27T04:58:28.709Z,50.43
2018-03-27T05:00:57.007Z,49.30
2018-03-27T05:03:25.389Z,45.80
2018-03-27T05:05:53.851Z,51.83
2018-03-27T05:08:22.115Z,49.97
2018-03-27T05:10:50.420Z,52.70
2018-03-27T05:13:18.752Z,55.00
2018-03-27T05:15:47.103Z,60.70
2018-03-27T05:18:15.401Z,59.60
2018-03-27T05:20:44.688Z,56.47
2018-03-27T05:23:13.758Z,61.60
2018-03-27T05:25:42.057Z,57.37
2018-03-27T05:28:10.904Z,58.37
2018-03-27T05:30:39.210Z,56.73
2018-03-27T05:33:07.480Z,54.23
2018-03-27T05:35:35.777Z,52.27
2018-03-27T05:38:04.011Z,53.80
2018-03-27T05:40:32.296Z,58.17
2018-03-27T05:43:00.712Z,51.47
2018-03-27T05:45:29.022Z,55.63
2018-03-27T05:47:57.313Z,52.17
2018-03-27T05:50:26.538Z,51.03
2018-03-27T05:52:54.786Z,52.47
2018-03-27T05:55:23.840Z,51.23
2018-03-27T05:57:52.235Z,49.00
2018-03-27T06:00:20.542Z,47.83
2018-03-27T06:02:48.810Z,50.00
2018-03-27T06:05:17.295Z,46.67
2018-03-27T06:07:45.594Z,50.60
2018-03-27T06:10:13.823Z,47.97
2018-03-27T06:12:42.098Z,48.77
2018-03-27T06:15:10.408Z,50.30
2018-03-27T06:17:38.638Z,46.70
2018-03-27T06:20:06.949Z,48.83
2018-03-27T06:22:35.214Z,47.30
2018-03-27T06:25:03.508Z,43.63
2018-03-27T06:27:31.848Z,47.20
2018-03-27T06:30:00.996Z,48.63
2018-03-27T06:32:29.238Z,47.27
2018-03-27T06:34:57.545Z,46.87
2018-03-27T06:37:25.846Z,49.43
2018-03-27T06:39:54.076Z,53.03
2018-03-27T06:42:22.752Z,49.50
2018-03-27T06:44:51.794Z,47.17
2018-03-27T06:47:20.027Z,51.40
2018-03-27T06:49:49.202Z,50.63
2018-03-27T06:52:17.486Z,57.83
2018-03-27T06:54:45.735Z,47.83
2018-03-27T06:57:14.374Z,49.90
2018-03-27T06:59:43.416Z,53.23
2018-03-27T07:02:11.754Z,48.03
2018-03-27T07:04:40.263Z,47.33
2018-03-27T07:07:08.569Z,50.63
2018-03-27T07:09:36.776Z,48.63
2018-03-27T07:12:05.224Z,48.00
2018-03-27T07:14:33.490Z,47.63
2018-03-27T07:17:02.530Z,47.37
2018-03-27T07:19:31.067Z,48.63
2018-03-27T07:22:00.319Z,36.93
2018-03-27T07:24:28.620Z,54.43
2018-03-27T07:44:59.736Z,55.40
2018-03-27T07:47:27.974Z,55.90
2018-03-27T07:49:57.040Z,57.50
2018-03-27T07:52:25.525Z,56.00
2018-03-27T07:54:53.833Z,51.43
2018-03-27T07:57:22.144Z,52.77
2018-03-27T07:59:51.225Z,53.73
2018-03-27T08:02:20.289Z,52.03
2018-03-27T08:04:48.555Z,54.00
2018-03-27T08:07:17.054Z,51.63
2018-03-27T08:09:45.360Z,53.87
2018-03-27T08:12:13.632Z,55.90
2018-03-27T08:14:41.920Z,51.60
2018-03-27T08:17:10.968Z,48.07
2018-03-27T08:19:39.244Z,48.00
2018-03-27T08:22:07.855Z,37.93
2018-03-27T08:24:36.171Z,52.77
2018-03-27T08:27:05.208Z,39.83
2018-03-27T08:29:33.653Z,49.60
2018-03-27T08:32:02.040Z,47.53
2018-03-27T08:52:32.933Z,42.30
2018-03-27T08:55:01.212Z,38.47
2018-03-27T08:57:29.459Z,43.17
2018-03-27T08:59:58.831Z,38.03
2018-03-27T09:02:27.112Z,37.37
2018-03-27T09:04:55.380Z,36.27
2018-03-27T09:07:23.854Z,36.60
2018-03-27T09:09:52.120Z,37.27
2018-03-27T09:12:20.404Z,38.53
2018-03-27T09:32:51.940Z,36.43
2018-03-27T09:35:20.271Z,36.10
2018-03-27T09:37:48.552Z,45.47
2018-03-27T09:40:16.918Z,41.10
2018-03-27T09:42:45.488Z,44.37
2018-03-27T09:45:14.555Z,42.97
2018-03-27T09:47:42.794Z,41.83
2018-03-27T10:08:13.388Z,37.60
2018-03-27T10:10:41.692Z,39.83
2018-03-27T10:13:10.728Z,37.03
2018-03-27T10:33:42.457Z,28.37
2018-03-27T10:36:10.703Z,26.80
2018-03-27T10:38:38.955Z,29.87
2018-03-27T10:41:07.325Z,30.07
2018-03-27T10:43:36.361Z,26.60
2018-03-27T10:46:04.640Z,27.37
2018-03-27T10:48:32.933Z,27.60
2018-03-27T10:51:01.211Z,27.23
2018-03-27T10:53:29.541Z,27.60
2018-03-27T10:55:58.768Z,29.57
2018-03-27T10:58:27.084Z,26.63
2018-03-27T11:00:55.338Z,27.90
2018-03-27T11:03:23.648Z,28.40
2018-03-27T11:05:51.929Z,25.17
2018-03-27T11:08:20.310Z,27.27
2018-03-27T11:10:48.578Z,25.27
2018-03-27T11:13:16.867Z,27.70
2018-03-27T11:15:45.152Z,25.03
2018-03-27T11:18:13.632Z,24.63
2018-03-27T11:20:41.918Z,24.70
2018-03-27T11:23:10.267Z,26.97
2018-03-27T11:25:38.678Z,22.23
2018-03-27T11:28:06.956Z,22.67
2018-03-27T11:30:35.243Z,22.47
2018-03-27T11:33:03.740Z,22.40
2018-03-27T11:35:32.012Z,20.70
2018-03-27T11:38:00.299Z,20.23
2018-03-27T11:40:28.609Z,20.63
2018-03-27T11:42:57.660Z,20.27
2018-03-27T11:45:25.935Z,21.90
2018-03-27T11:47:54.472Z,21.53
2018-03-27T11:50:23.528Z,23.87
2018-03-27T11:52:51.833Z,23.67
2018-03-27T11:55:20.428Z,21.43
2018-03-27T11:57:49.470Z,20.03
2018-03-27T12:00:17.780Z,23.33
2018-03-27T12:02:46.128Z,22.53
2018-03-27T12:05:14.370Z,20.03
2018-03-27T12:07:43.433Z,20.00
2018-03-27T12:10:11.707Z,18.70
2018-03-27T12:12:39.959Z,18.80
2018-03-27T12:15:08.244Z,17.50
2018-03-27T12:17:36.764Z,18.03
2018-03-27T12:20:05.081Z,19.17
2018-03-27T12:22:33.342Z,20.90
2018-03-27T12:25:01.682Z,18.30
2018-03-27T12:27:29.948Z,19.13
2018-03-27T12:29:58.232Z,17.27
2018-03-27T12:32:26.549Z,19.63
2018-03-27T12:34:54.858Z,18.17
2018-03-27T12:37:23.903Z,18.93
2018-03-27T12:39:52.264Z,18.10
2018-03-27T12:42:21.307Z,21.20
2018-03-27T12:44:50.101Z,16.43
2018-03-27T12:47:18.691Z,15.83
2018-03-27T12:49:46.936Z,17.10
2018-03-27T12:52:15.186Z,17.70
2018-03-27T12:54:43.471Z,17.83
2018-03-27T12:57:11.780Z,14.83
2018-03-27T12:59:40.060Z,17.83
2018-03-27T13:02:08.456Z,18.37
2018-03-27T13:04:36.721Z,16.30
2018-03-27T13:07:05.028Z,17.10
2018-03-27T13:09:33.721Z,17.03
2018-03-27T13:12:02.004Z,16.77
2018-03-27T13:14:30.281Z,16.67
2018-03-27T13:16:58.576Z,17.47
2018-03-27T13:19:26.859Z,18.27
2018-03-27T13:21:55.164Z,15.40
2018-03-27T13:24:23.711Z,16.87
2018-03-27T13:26:51.963Z,17.80
2018-03-27T13:29:20.215Z,16.40
2018-03-27T13:31:48.797Z,16.37
2018-03-27T13:34:18.316Z,14.50
2018-03-27T13:36:47.124Z,15.03
2018-03-27T13:39:15.604Z,15.70
2018-03-27T13:41:43.912Z,13.90
2018-03-27T13:44:12.192Z,14.53
2018-03-27T13:46:40.504Z,17.90
2018-03-27T13:49:08.784Z,16.40
2018-03-27T13:51:37.067Z,13.13
2018-03-27T13:54:05.503Z,16.27
2018-03-27T13:56:33.825Z,14.53
2018-03-27T13:59:02.135Z,13.43
2018-03-27T14:01:31.328Z,14.43
2018-03-27T14:04:00.398Z,14.53
2018-03-27T14:06:28.777Z,15.03
2018-03-27T14:08:57.105Z,12.77
2018-03-27T14:11:26.181Z,15.27
2018-03-27T14:13:54.418Z,13.97
2018-03-27T14:16:22.718Z,14.30
2018-03-27T14:18:50.999Z,14.93
2018-03-27T14:21:19.307Z,13.00
2018-03-27T14:23:48.372Z,13.20
2018-03-27T14:26:16.633Z,15.40
2018-03-27T14:28:44.919Z,12.63
2018-03-27T14:31:13.212Z,13.33
2018-03-27T14:33:41.503Z,13.07
2018-03-27T14:36:09.806Z,12.03
2018-03-27T14:38:38.265Z,12.40
2018-03-27T14:59:08.582Z,16.47
2018-03-27T15:01:36.929Z,13.93
2018-03-27T15:04:05.996Z,13.13
2018-03-27T15:06:34.288Z,17.57
2018-03-27T15:09:02.738Z,13.07
2018-03-27T15:11:31.033Z,15.03
2018-03-27T15:13:59.300Z,12.13
2018-03-27T15:16:27.812Z,13.33
2018-03-27T15:18:56.047Z,12.47
2018-03-27T15:21:24.364Z,15.47
2018-03-27T15:23:53.059Z,11.40
2018-03-27T15:26:21.386Z,12.40
2018-03-27T15:28:49.695Z,13.90
2018-03-27T15:31:18.020Z,14.30
2018-03-27T15:33:46.342Z,16.50
2018-03-27T15:36:14.650Z,17.00
2018-03-27T15:38:43.693Z,12.43
2018-03-27T15:41:12.730Z,13.47
2018-03-27T15:43:40.985Z,12.23
2018-03-27T15:46:09.368Z,13.90
2018-03-27T15:48:38.370Z,12.93
2018-03-27T15:51:06.623Z,14.83
2018-03-27T15:53:35.829Z,13.50
2018-03-27T15:56:04.863Z,16.93
2018-03-27T15:58:33.144Z,15.63
2018-03-27T16:01:01.563Z,14.97
2018-03-27T16:03:30.602Z,13.30
2018-03-27T16:05:58.846Z,10.93
2018-03-27T16:08:27.172Z,12.77
2018-03-27T16:10:55.442Z,13.27
2018-03-27T16:13:23.753Z,12.47
2018-03-27T16:15:52.047Z,10.87
2018-03-27T16:18:20.328Z,13.57
2018-03-27T16:20:48.631Z,13.67
2018-03-27T16:23:17.107Z,14.23
2018-03-27T16:43:49.171Z,13.47
2018-03-27T16:46:17.687Z,15.43
2018-03-27T16:48:45.986Z,15.27
2018-03-27T16:51:14.268Z,16.10
2018-03-27T16:53:43.380Z,13.03
2018-03-27T16:56:12.387Z,13.33
2018-03-27T16:58:40.676Z,13.77
2018-03-27T17:19:11.163Z,16.67
2018-03-27T17:21:39.445Z,17.00
2018-03-27T17:24:07.786Z,18.17
2018-03-27T17:26:36.441Z,16.97
2018-03-27T17:29:05.524Z,19.07
2018-03-27T17:31:33.780Z,18.80
2018-03-27T17:34:02.116Z,20.50
2018-03-27T17:36:31.140Z,20.40
2018-03-27T17:38:59.449Z,20.27
2018-03-27T17:41:27.951Z,17.93
2018-03-27T17:43:56.227Z,17.40
2018-03-27T17:46:24.496Z,20.33
2018-03-27T17:48:52.919Z,19.80
2018-03-27T17:51:21.671Z,20.77
2018-03-27T17:53:49.985Z,20.30
2018-03-27T17:56:18.533Z,21.47
2018-03-27T17:58:46.815Z,20.77
2018-03-27T18:01:15.121Z,21.67
2018-03-27T18:03:43.444Z,22.57
2018-03-27T18:06:11.704Z,23.87
2018-03-27T18:08:40.753Z,21.73
2018-03-27T18:11:09.056Z,23.47
2018-03-27T18:13:37.282Z,24.43
2018-03-27T18:16:05.751Z,18.73
2018-03-27T18:18:34.328Z,27.40
2018-03-27T18:21:02.635Z,25.80
2018-03-27T18:23:31.668Z,27.30
2018-03-27T18:25:59.934Z,28.13
2018-03-27T18:28:28.213Z,28.23
2018-03-27T18:30:56.533Z,29.63
2018-03-27T18:33:24.976Z,28.23
2018-03-27T18:35:53.225Z,31.73
2018-03-27T18:38:22.242Z,34.13
2018-03-27T18:40:50.797Z,31.90
2018-03-27T18:43:19.092Z,33.23
2018-03-27T18:45:48.147Z,31.97
2018-03-27T18:48:16.619Z,32.60
2018-03-27T18:50:44.936Z,27.20
2018-03-27T18:53:13.174Z,38.07
2018-03-27T18:55:41.504Z,30.30
2018-03-27T18:58:09.767Z,33.77
2018-03-27T19:00:38.012Z,28.63
2018-03-27T19:03:06.421Z,38.27
2018-03-27T19:05:34.683Z,37.33
2018-03-27T19:08:02.978Z,27.70
2018-03-27T19:10:31.435Z,36.43
2018-03-27T19:12:59.743Z,36.93
2018-03-27T19:15:27.978Z,37.23
2018-03-27T19:17:56.436Z,34.80
2018-03-27T19:20:24.712Z,25.77
2018-03-27T19:22:53.785Z,32.67
2018-03-27T19:25:22.244Z,33.90
2018-03-27T19:27:50.555Z,25.37
2018-03-27T19:30:18.837Z,39.60
2018-03-27T19:32:47.119Z,33.07
2018-03-27T19:35:15.528Z,33.87
2018-03-27T19:37:44.570Z,33.80
2018-03-27T19:40:12.851Z,33.10
2018-03-27T19:42:41.163Z,29.70
2018-03-27T19:45:09.465Z,31.83
2018-03-27T19:47:37.924Z,29.23
2018-03-27T19:50:06.205Z,32.40
2018-03-27T19:52:34.506Z,33.10
2018-03-27T19:55:03.001Z,22.03
2018-03-27T19:57:31.255Z,31.37
2018-03-27T19:59:59.535Z,28.23
2018-03-27T20:02:27.868Z,30.20
2018-03-27T20:04:56.127Z,26.70
2018-03-27T20:25:27.443Z,20.53
2018-03-27T20:27:56.605Z,24.30
2018-03-27T20:30:24.851Z,19.47
2018-03-27T20:32:53.224Z,22.97
2018-03-27T20:35:21.497Z,20.93
2018-03-27T20:37:49.808Z,21.90
2018-03-27T20:40:18.231Z,21.40
2018-03-27T20:42:46.500Z,22.03
2018-03-27T20:45:14.763Z,22.87
2018-03-27T20:47:43.432Z,23.70
2018-03-27T20:50:11.684Z,23.50
2018-03-27T20:52:39.935Z,25.23
2018-03-27T20:55:08.257Z,26.57
2018-03-27T20:57:36.520Z,27.50
2018-03-27T21:00:04.796Z,27.07
2018-03-27T21:02:33.276Z,19.47
2018-03-27T21:05:01.595Z,25.40
2018-03-27T21:07:29.864Z,29.10
2018-03-27T21:09:58.148Z,25.80
2018-03-27T21:30:30.651Z,24.93
2018-03-27T21:32:59.101Z,25.13
2018-03-27T21:35:27.342Z,29.27
2018-03-27T21:37:56.420Z,19.80
2018-03-27T21:40:24.851Z,27.57
2018-03-27T21:42:53.099Z,21.17
2018-03-27T22:03:25.501Z,21.67
2018-03-27T22:05:54.561Z,26.37
2018-03-27T22:08:24.102Z,26.10
2018-03-27T22:10:53.921Z,25.67
2018-03-27T22:13:22.954Z,26.30
2018-03-27T22:15:51.256Z,27.43
2018-03-27T22:18:19.781Z,25.57
2018-03-27T22:20:48.015Z,28.20
2018-03-27T22:23:16.316Z,22.47
2018-03-27T22:25:45.575Z,27.63
2018-03-27T22:28:13.869Z,27.00
2018-03-27T22:30:42.103Z,22.80
2018-03-27T22:33:11.266Z,28.47
2018-03-27T22:35:39.549Z,26.07
2018-03-27T22:38:07.856Z,27.23
2018-03-27T22:40:36.357Z,27.93
2018-03-27T22:43:05.359Z,29.50
2018-03-27T22:45:34.509Z,22.07
2018-03-27T22:48:03.137Z,27.07
2018-03-27T22:50:31.367Z,19.53
2018-03-27T22:52:59.623Z,24.27
2018-03-27T22:55:28.051Z,23.40
2018-03-27T22:57:56.360Z,25.80
2018-03-27T23:00:24.594Z,24.27
2018-03-27T23:02:53.226Z,24.27
2018-03-27T23:05:22.260Z,26.43
2018-03-27T23:07:50.536Z,22.57
2018-03-27T23:10:18.877Z,23.43
2018-03-27T23:12:47.135Z,20.13
2018-03-27T23:33:19.644Z,16.53
2018-03-27T23:35:47.928Z,15.13
2018-03-27T23:38:16.204Z,13.73
2018-03-27T23:40:44.689Z,17.27
2018-03-27T23:43:12.967Z,16.47
2018-03-27T23:45:41.320Z,18.60
2018-03-27T23:48:10.623Z,19.13
2018-03-27T23:50:38.945Z,17.67
2018-03-27T23:53:07.183Z,19.20
2018-03-27T23:55:35.508Z,19.13
2018-03-27T23:58:03.816Z,17.43
